sensor_id;sensor_type;location;lat;lon;timestamp;pressure;altitude;pressure_sealevel;temperature;humidity
57600;BME280;43426;43.594;24.334;2024-03-22T00:02:07;101554.94;;;5.06;88.80
57600;BME280;43426;43.594;24.334;2024-03-22T00:04:35;101587.34;;;5.25;88.70
57600;BME280;43426;43.594;24.334;2024-03-22T00:07:01;101568.31;;;5.06;88.72
57600;BME280;43426;43.594;24.334;2024-03-22T00:09:26;101583.69;;;5.15;88.77
57600;BME280;43426;43.594;24.334;2024-03-22T00:11:52;101554.94;;;5.06;88.02
57600;BME280;43426;43.594;24.334;2024-03-22T00:14:17;101563.56;;;5.09;88.13
57600;BME280;43426;43.594;24.334;2024-03-22T00:16:43;101582.25;;;5.22;87.87
57600;BME280;43426;43.594;24.334;2024-03-22T00:19:09;101583.84;;;5.25;87.81
57600;BME280;43426;43.594;24.334;2024-03-22T00:21:34;101561.25;;;5.05;87.75
57600;BME280;43426;43.594;24.334;2024-03-22T00:24:00;101544.22;;;4.82;88.02
57600;BME280;43426;43.594;24.334;2024-03-22T00:26:27;101554.91;;;4.82;88.68
57600;BME280;43426;43.594;24.334;2024-03-22T00:28:52;101560.44;;;4.91;88.33
57600;BME280;43426;43.594;24.334;2024-03-22T00:31:18;101575.94;;;4.99;88.19
57600;BME280;43426;43.594;24.334;2024-03-22T00:33:44;101565.72;;;4.80;87.80
57600;BME280;43426;43.594;24.334;2024-03-22T00:36:09;101572.50;;;4.73;88.02
57600;BME280;43426;43.594;24.334;2024-03-22T00:38:35;101564.19;;;4.65;87.73
57600;BME280;43426;43.594;24.334;2024-03-22T00:41:01;101554.22;;;4.42;89.27
57600;BME280;43426;43.594;24.334;2024-03-22T00:43:26;101568.06;;;4.60;89.33
57600;BME280;43426;43.594;24.334;2024-03-22T00:45:52;101589.09;;;4.65;89.72
57600;BME280;43426;43.594;24.334;2024-03-22T00:48:17;101544.59;;;4.40;89.47
57600;BME280;43426;43.594;24.334;2024-03-22T00:50:43;101549.44;;;4.35;89.02
57600;BME280;43426;43.594;24.334;2024-03-22T00:53:09;101566.69;;;4.55;89.50
57600;BME280;43426;43.594;24.334;2024-03-22T00:55:35;101558.47;;;4.45;89.46
57600;BME280;43426;43.594;24.334;2024-03-22T00:58:01;101532.22;;;4.26;89.57
57600;BME280;43426;43.594;24.334;2024-03-22T01:00:26;101556.47;;;4.36;89.78
57600;BME280;43426;43.594;24.334;2024-03-22T01:02:52;101590.41;;;4.59;89.57
57600;BME280;43426;43.594;24.334;2024-03-22T01:05:17;101541.63;;;4.32;89.20
57600;BME280;43426;43.594;24.334;2024-03-22T01:07:43;101554.34;;;4.28;89.41
57600;BME280;43426;43.594;24.334;2024-03-22T01:10:09;101555.88;;;4.06;90.61
57600;BME280;43426;43.594;24.334;2024-03-22T01:12:35;101551.38;;;4.07;90.75
57600;BME280;43426;43.594;24.334;2024-03-22T01:15:00;101573.38;;;4.11;91.25
57600;BME280;43426;43.594;24.334;2024-03-22T01:17:26;101534.75;;;3.90;91.18
57600;BME280;43426;43.594;24.334;2024-03-22T01:19:51;101587.19;;;4.17;91.08
57600;BME280;43426;43.594;24.334;2024-03-22T01:22:17;101583.97;;;4.12;91.09
57600;BME280;43426;43.594;24.334;2024-03-22T01:24:44;101555.03;;;3.93;91.87
57600;BME280;43426;43.594;24.334;2024-03-22T01:27:09;101580.34;;;4.00;91.93
57600;BME280;43426;43.594;24.334;2024-03-22T01:29:35;101547.69;;;3.84;92.14
57600;BME280;43426;43.594;24.334;2024-03-22T01:32:01;101582.16;;;4.00;91.90
57600;BME280;43426;43.594;24.334;2024-03-22T01:34:26;101575.22;;;3.84;92.19
57600;BME280;43426;43.594;24.334;2024-03-22T01:36:52;101579.47;;;4.00;91.58
57600;BME280;43426;43.594;24.334;2024-03-22T01:39:21;101589.44;;;3.98;91.63
57600;BME280;43426;43.594;24.334;2024-03-22T01:41:50;101585.69;;;3.87;92.11
57600;BME280;43426;43.594;24.334;2024-03-22T01:44:17;101576.50;;;3.91;91.95
57600;BME280;43426;43.594;24.334;2024-03-22T01:46:44;101581.84;;;3.91;91.38
57600;BME280;43426;43.594;24.334;2024-03-22T01:49:14;101575.31;;;3.83;91.61
57600;BME280;43426;43.594;24.334;2024-03-22T01:51:41;101581.31;;;3.86;91.96
57600;BME280;43426;43.594;24.334;2024-03-22T01:54:09;101579.38;;;3.88;91.97
57600;BME280;43426;43.594;24.334;2024-03-22T01:56:38;101551.94;;;3.73;91.24
57600;BME280;43426;43.594;24.334;2024-03-22T01:59:04;101560.69;;;3.63;91.86
57600;BME280;43426;43.594;24.334;2024-03-22T02:01:31;101553.75;;;3.73;91.69
57600;BME280;43426;43.594;24.334;2024-03-22T02:03:56;101560.59;;;3.64;91.21
57600;BME280;43426;43.594;24.334;2024-03-22T02:06:22;101577.25;;;3.68;91.23
57600;BME280;43426;43.594;24.334;2024-03-22T02:08:47;101535.69;;;3.38;91.00
57600;BME280;43426;43.594;24.334;2024-03-22T02:11:12;101581.69;;;3.54;91.27
57600;BME280;43426;43.594;24.334;2024-03-22T02:13:39;101580.63;;;3.44;91.60
57600;BME280;43426;43.594;24.334;2024-03-22T02:16:05;101576.44;;;3.27;91.36
57600;BME280;43426;43.594;24.334;2024-03-22T02:18:31;101584.44;;;3.27;91.10
57600;BME280;43426;43.594;24.334;2024-03-22T02:20:56;101550.94;;;2.96;90.98
57600;BME280;43426;43.594;24.334;2024-03-22T02:23:35;101578.06;;;3.02;91.81
57600;BME280;43426;43.594;24.334;2024-03-22T02:26:02;101571.81;;;2.89;91.31
57600;BME280;43426;43.594;24.334;2024-03-22T02:28:28;101580.59;;;2.91;91.74
57600;BME280;43426;43.594;24.334;2024-03-22T02:30:53;101602.66;;;2.93;91.41
57600;BME280;43426;43.594;24.334;2024-03-22T02:33:19;101575.28;;;2.77;91.67
57600;BME280;43426;43.594;24.334;2024-03-22T02:35:48;101600.53;;;2.71;91.75
57600;BME280;43426;43.594;24.334;2024-03-22T02:38:14;101592.47;;;2.58;92.24
57600;BME280;43426;43.594;24.334;2024-03-22T02:40:40;101586.50;;;2.40;93.13
57600;BME280;43426;43.594;24.334;2024-03-22T02:43:06;101604.16;;;2.55;93.16
57600;BME280;43426;43.594;24.334;2024-03-22T02:45:32;101565.91;;;2.15;93.54
57600;BME280;43426;43.594;24.334;2024-03-22T02:47:57;101610.28;;;2.29;94.44
57600;BME280;43426;43.594;24.334;2024-03-22T02:50:23;101591.91;;;2.24;95.26
57600;BME280;43426;43.594;24.334;2024-03-22T02:52:49;101598.66;;;2.30;95.35
57600;BME280;43426;43.594;24.334;2024-03-22T02:55:14;101611.72;;;2.34;96.00
57600;BME280;43426;43.594;24.334;2024-03-22T02:57:40;101610.94;;;2.32;96.34
57600;BME280;43426;43.594;24.334;2024-03-22T03:00:06;101592.97;;;2.21;96.42
57600;BME280;43426;43.594;24.334;2024-03-22T03:02:32;101608.56;;;2.28;96.83
57600;BME280;43426;43.594;24.334;2024-03-22T03:04:57;101593.94;;;2.20;97.10
57600;BME280;43426;43.594;24.334;2024-03-22T03:07:24;101589.75;;;2.16;97.38
57600;BME280;43426;43.594;24.334;2024-03-22T03:09:50;101577.28;;;2.17;97.20
57600;BME280;43426;43.594;24.334;2024-03-22T03:12:16;101620.75;;;2.32;96.96
57600;BME280;43426;43.594;24.334;2024-03-22T03:14:41;101610.41;;;2.27;96.82
57600;BME280;43426;43.594;24.334;2024-03-22T03:17:07;101590.41;;;2.20;96.80
57600;BME280;43426;43.594;24.334;2024-03-22T03:19:33;101593.56;;;2.12;96.00
57600;BME280;43426;43.594;24.334;2024-03-22T03:21:58;101619.69;;;2.20;95.03
57600;BME280;43426;43.594;24.334;2024-03-22T03:24:24;101598.22;;;1.94;94.42
57600;BME280;43426;43.594;24.334;2024-03-22T03:26:49;101597.13;;;1.82;94.26
57600;BME280;43426;43.594;24.334;2024-03-22T03:29:15;101603.09;;;1.72;94.97
57600;BME280;43426;43.594;24.334;2024-03-22T03:31:40;101620.34;;;1.80;95.57
57600;BME280;43426;43.594;24.334;2024-03-22T03:34:06;101636.09;;;1.83;94.65
57600;BME280;43426;43.594;24.334;2024-03-22T03:36:31;101628.56;;;1.76;94.11
57600;BME280;43426;43.594;24.334;2024-03-22T03:38:57;101622.44;;;1.59;93.30
57600;BME280;43426;43.594;24.334;2024-03-22T03:41:22;101618.25;;;1.55;93.81
57600;BME280;43426;43.594;24.334;2024-03-22T03:43:47;101596.91;;;1.26;94.61
57600;BME280;43426;43.594;24.334;2024-03-22T03:46:13;101586.63;;;1.20;94.58
57600;BME280;43426;43.594;24.334;2024-03-22T03:48:38;101609.94;;;1.31;95.28
57600;BME280;43426;43.594;24.334;2024-03-22T03:51:05;101634.19;;;1.41;94.90
57600;BME280;43426;43.594;24.334;2024-03-22T03:53:30;101641.16;;;1.27;95.86
57600;BME280;43426;43.594;24.334;2024-03-22T03:55:56;101611.16;;;1.09;96.38
57600;BME280;43426;43.594;24.334;2024-03-22T03:58:21;101614.94;;;1.05;95.77
57600;BME280;43426;43.594;24.334;2024-03-22T04:00:47;101626.34;;;0.91;96.49
57600;BME280;43426;43.594;24.334;2024-03-22T04:03:12;101611.47;;;0.73;98.18
57600;BME280;43426;43.594;24.334;2024-03-22T04:05:38;101639.72;;;0.90;99.30
57600;BME280;43426;43.594;24.334;2024-03-22T04:08:03;101627.66;;;0.84;100.00
57600;BME280;43426;43.594;24.334;2024-03-22T04:10:29;101650.13;;;0.94;100.00
57600;BME280;43426;43.594;24.334;2024-03-22T04:12:55;101618.41;;;0.75;100.00
57600;BME280;43426;43.594;24.334;2024-03-22T04:15:20;101643.41;;;0.87;100.00
57600;BME280;43426;43.594;24.334;2024-03-22T04:17:45;101645.41;;;0.83;100.00
57600;BME280;43426;43.594;24.334;2024-03-22T04:20:11;101655.09;;;0.84;100.00
57600;BME280;43426;43.594;24.334;2024-03-22T04:22:37;101645.41;;;0.83;100.00
57600;BME280;43426;43.594;24.334;2024-03-22T04:25:03;101627.06;;;0.63;100.00
57600;BME280;43426;43.594;24.334;2024-03-22T04:27:29;101635.78;;;0.65;100.00
57600;BME280;43426;43.594;24.334;2024-03-22T04:29:54;101677.88;;;0.73;99.84
57600;BME280;43426;43.594;24.334;2024-03-22T04:32:20;101674.69;;;0.66;99.40
57600;BME280;43426;43.594;24.334;2024-03-22T04:34:45;101664.63;;;0.55;98.59
57600;BME280;43426;43.594;24.334;2024-03-22T04:37:11;101656.59;;;0.57;98.84
57600;BME280;43426;43.594;24.334;2024-03-22T04:39:45;101650.91;;;0.47;98.88
57600;BME280;43426;43.594;24.334;2024-03-22T04:42:11;101654.28;;;0.50;100.00
57600;BME280;43426;43.594;24.334;2024-03-22T04:44:36;101683.19;;;0.73;100.00
57600;BME280;43426;43.594;24.334;2024-03-22T04:47:02;101688.94;;;0.81;100.00
57600;BME280;43426;43.594;24.334;2024-03-22T04:49:28;101682.69;;;0.82;100.00
57600;BME280;43426;43.594;24.334;2024-03-22T04:51:53;101681.66;;;0.84;100.00
57600;BME280;43426;43.594;24.334;2024-03-22T04:54:19;101677.19;;;1.01;100.00
57600;BME280;43426;43.594;24.334;2024-03-22T04:56:44;101665.53;;;1.04;100.00
57600;BME280;43426;43.594;24.334;2024-03-22T04:59:10;101670.47;;;1.26;100.00
57600;BME280;43426;43.594;24.334;2024-03-22T05:01:35;101693.66;;;1.70;99.90
57600;BME280;43426;43.594;24.334;2024-03-22T05:04:01;101675.13;;;1.68;100.00
57600;BME280;43426;43.594;24.334;2024-03-22T05:06:26;101664.56;;;1.97;99.06
57600;BME280;43426;43.594;24.334;2024-03-22T05:08:52;101663.91;;;2.22;98.37
57600;BME280;43426;43.594;24.334;2024-03-22T05:11:17;101682.56;;;2.51;97.75
57600;BME280;43426;43.594;24.334;2024-03-22T05:13:43;101695.69;;;2.83;94.05
57600;BME280;43426;43.594;24.334;2024-03-22T05:16:08;101674.56;;;2.80;93.53
57600;BME280;43426;43.594;24.334;2024-03-22T05:18:34;101671.28;;;3.04;92.29
57600;BME280;43426;43.594;24.334;2024-03-22T05:20:59;101694.16;;;3.21;90.50
57600;BME280;43426;43.594;24.334;2024-03-22T05:23:25;101676.53;;;3.33;89.88
57600;BME280;43426;43.594;24.334;2024-03-22T05:25:50;101699.56;;;3.61;89.49
57600;BME280;43426;43.594;24.334;2024-03-22T05:28:16;101698.03;;;3.97;88.80
57600;BME280;43426;43.594;24.334;2024-03-22T05:30:41;101694.44;;;4.37;86.96
57600;BME280;43426;43.594;24.334;2024-03-22T05:33:06;101695.81;;;4.68;85.54
57600;BME280;43426;43.594;24.334;2024-03-22T05:35:32;101687.41;;;4.99;83.34
57600;BME280;43426;43.594;24.334;2024-03-22T05:37:57;101672.69;;;5.17;81.54
57600;BME280;43426;43.594;24.334;2024-03-22T05:40:23;101710.66;;;5.46;81.55
57600;BME280;43426;43.594;24.334;2024-03-22T05:42:48;101702.94;;;5.79;80.68
57600;BME280;43426;43.594;24.334;2024-03-22T05:45:14;101709.94;;;5.69;81.05
57600;BME280;43426;43.594;24.334;2024-03-22T05:47:40;101685.78;;;5.82;80.65
57600;BME280;43426;43.594;24.334;2024-03-22T05:50:06;101688.66;;;6.03;79.98
57600;BME280;43426;43.594;24.334;2024-03-22T05:52:34;101689.84;;;6.45;79.04
57600;BME280;43426;43.594;24.334;2024-03-22T05:55:00;101695.81;;;6.83;77.38
57600;BME280;43426;43.594;24.334;2024-03-22T05:57:25;101721.34;;;7.21;76.14
57600;BME280;43426;43.594;24.334;2024-03-22T05:59:51;101704.59;;;7.40;74.84
57600;BME280;43426;43.594;24.334;2024-03-22T06:02:18;101704.84;;;7.37;73.95
57600;BME280;43426;43.594;24.334;2024-03-22T06:04:44;101726.56;;;7.45;73.76
57600;BME280;43426;43.594;24.334;2024-03-22T06:07:10;101718.13;;;7.50;73.72
57600;BME280;43426;43.594;24.334;2024-03-22T06:09:36;101708.81;;;7.54;74.25
57600;BME280;43426;43.594;24.334;2024-03-22T06:12:17;101720.47;;;7.76;73.58
57600;BME280;43426;43.594;24.334;2024-03-22T06:14:43;101732.63;;;7.91;73.79
57600;BME280;43426;43.594;24.334;2024-03-22T06:17:09;101738.81;;;8.24;74.68
57600;BME280;43426;43.594;24.334;2024-03-22T06:19:35;101739.16;;;8.52;73.48
57600;BME280;43426;43.594;24.334;2024-03-22T06:22:00;101743.16;;;8.58;72.78
57600;BME280;43426;43.594;24.334;2024-03-22T06:24:26;101718.91;;;8.89;73.38
57600;BME280;43426;43.594;24.334;2024-03-22T06:26:52;101720.50;;;9.32;71.35
57600;BME280;43426;43.594;24.334;2024-03-22T06:29:17;101734.63;;;9.24;68.95
57600;BME280;43426;43.594;24.334;2024-03-22T06:31:43;101727.19;;;9.07;70.39
57600;BME280;43426;43.594;24.334;2024-03-22T06:34:08;101737.06;;;9.47;70.14
57600;BME280;43426;43.594;24.334;2024-03-22T06:36:34;101727.34;;;9.95;68.38
57600;BME280;43426;43.594;24.334;2024-03-22T06:39:00;101732.81;;;10.52;66.07
57600;BME280;43426;43.594;24.334;2024-03-22T06:41:26;101729.28;;;10.89;64.79
57600;BME280;43426;43.594;24.334;2024-03-22T06:43:51;101718.47;;;11.17;64.06
57600;BME280;43426;43.594;24.334;2024-03-22T06:46:17;101735.00;;;11.59;61.00
57600;BME280;43426;43.594;24.334;2024-03-22T06:48:43;101732.91;;;11.71;59.53
57600;BME280;43426;43.594;24.334;2024-03-22T06:51:08;101725.63;;;11.90;59.28
57600;BME280;43426;43.594;24.334;2024-03-22T06:53:34;101719.06;;;12.29;58.41
57600;BME280;43426;43.594;24.334;2024-03-22T06:55:59;101721.16;;;12.43;57.61
57600;BME280;43426;43.594;24.334;2024-03-22T06:58:25;101752.47;;;12.72;55.91
57600;BME280;43426;43.594;24.334;2024-03-22T07:00:50;101741.53;;;12.82;54.53
57600;BME280;43426;43.594;24.334;2024-03-22T07:03:16;101728.91;;;12.99;54.33
57600;BME280;43426;43.594;24.334;2024-03-22T07:05:42;101747.81;;;13.25;52.35
57600;BME280;43426;43.594;24.334;2024-03-22T07:08:07;101732.13;;;12.94;51.47
57600;BME280;43426;43.594;24.334;2024-03-22T07:10:33;101746.78;;;12.83;52.09
57600;BME280;43426;43.594;24.334;2024-03-22T07:12:59;101743.47;;;12.63;49.99
57600;BME280;43426;43.594;24.334;2024-03-22T07:15:24;101723.63;;;12.28;49.94
57600;BME280;43426;43.594;24.334;2024-03-22T07:17:50;101732.59;;;11.92;52.01
57600;BME280;43426;43.594;24.334;2024-03-22T07:20:16;101752.13;;;11.68;50.17
57600;BME280;43426;43.594;24.334;2024-03-22T07:22:42;101754.44;;;11.45;47.92
57600;BME280;43426;43.594;24.334;2024-03-22T07:25:08;101752.53;;;11.28;51.06
57600;BME280;43426;43.594;24.334;2024-03-22T07:27:36;101734.53;;;11.18;49.64
57600;BME280;43426;43.594;24.334;2024-03-22T07:30:01;101733.00;;;10.78;50.49
57600;BME280;43426;43.594;24.334;2024-03-22T07:32:28;101716.88;;;10.59;50.89
57600;BME280;43426;43.594;24.334;2024-03-22T07:34:54;101742.31;;;10.56;51.07
57600;BME280;43426;43.594;24.334;2024-03-22T07:37:19;101709.28;;;10.15;49.83
57600;BME280;43426;43.594;24.334;2024-03-22T07:39:45;101734.72;;;10.02;50.63
57600;BME280;43426;43.594;24.334;2024-03-22T07:42:11;101733.31;;;9.88;50.53
57600;BME280;43426;43.594;24.334;2024-03-22T07:44:36;101747.63;;;9.79;53.48
57600;BME280;43426;43.594;24.334;2024-03-22T07:47:02;101752.28;;;9.97;53.30
57600;BME280;43426;43.594;24.334;2024-03-22T07:49:27;101738.41;;;10.01;53.03
57600;BME280;43426;43.594;24.334;2024-03-22T07:51:53;101749.44;;;9.79;50.35
57600;BME280;43426;43.594;24.334;2024-03-22T07:54:19;101757.69;;;9.87;50.00
57600;BME280;43426;43.594;24.334;2024-03-22T07:56:45;101728.91;;;9.58;51.73
57600;BME280;43426;43.594;24.334;2024-03-22T07:59:11;101754.56;;;9.72;51.26
57600;BME280;43426;43.594;24.334;2024-03-22T08:01:36;101748.31;;;9.71;52.59
57600;BME280;43426;43.594;24.334;2024-03-22T08:04:02;101762.25;;;9.96;53.02
57600;BME280;43426;43.594;24.334;2024-03-22T08:06:27;101768.63;;;10.05;52.79
57600;BME280;43426;43.594;24.334;2024-03-22T08:08:53;101758.84;;;10.04;51.14
57600;BME280;43426;43.594;24.334;2024-03-22T08:11:18;101760.13;;;10.10;51.63
57600;BME280;43426;43.594;24.334;2024-03-22T08:13:44;101768.88;;;10.31;50.23
57600;BME280;43426;43.594;24.334;2024-03-22T08:16:09;101756.53;;;10.19;53.13
57600;BME280;43426;43.594;24.334;2024-03-22T08:18:35;101768.75;;;10.23;50.93
57600;BME280;43426;43.594;24.334;2024-03-22T08:21:00;101775.72;;;10.55;51.30
57600;BME280;43426;43.594;24.334;2024-03-22T08:23:26;101745.69;;;10.68;51.73
57600;BME280;43426;43.594;24.334;2024-03-22T08:25:51;101762.31;;;10.63;50.18
57600;BME280;43426;43.594;24.334;2024-03-22T08:28:17;101744.94;;;10.76;49.84
57600;BME280;43426;43.594;24.334;2024-03-22T08:30:42;101760.03;;;11.06;51.10
57600;BME280;43426;43.594;24.334;2024-03-22T08:33:11;101748.47;;;10.86;50.17
57600;BME280;43426;43.594;24.334;2024-03-22T08:35:37;101761.16;;;11.13;49.81
57600;BME280;43426;43.594;24.334;2024-03-22T08:38:02;101758.94;;;11.27;49.35
57600;BME280;43426;43.594;24.334;2024-03-22T08:40:29;101764.63;;;11.51;49.54
57600;BME280;43426;43.594;24.334;2024-03-22T08:42:55;101720.53;;;11.51;50.25
57600;BME280;43426;43.594;24.334;2024-03-22T08:45:20;101749.91;;;11.82;48.23
57600;BME280;43426;43.594;24.334;2024-03-22T08:47:46;101741.78;;;11.64;49.79
57600;BME280;43426;43.594;24.334;2024-03-22T08:50:11;101741.47;;;11.67;48.24
57600;BME280;43426;43.594;24.334;2024-03-22T08:52:37;101750.13;;;11.88;48.89
57600;BME280;43426;43.594;24.334;2024-03-22T08:55:04;101751.84;;;11.71;49.23
57600;BME280;43426;43.594;24.334;2024-03-22T08:57:31;101735.47;;;11.91;47.20
57600;BME280;43426;43.594;24.334;2024-03-22T08:59:57;101732.94;;;12.07;47.32
57600;BME280;43426;43.594;24.334;2024-03-22T09:02:22;101753.88;;;12.50;46.26
57600;BME280;43426;43.594;24.334;2024-03-22T09:04:48;101737.59;;;12.76;45.07
57600;BME280;43426;43.594;24.334;2024-03-22T09:07:13;101738.28;;;12.70;44.47
57600;BME280;43426;43.594;24.334;2024-03-22T09:09:39;101737.00;;;12.56;44.55
57600;BME280;43426;43.594;24.334;2024-03-22T09:12:04;101740.75;;;12.89;44.96
57600;BME280;43426;43.594;24.334;2024-03-22T09:14:30;101715.94;;;12.76;43.84
57600;BME280;43426;43.594;24.334;2024-03-22T09:16:55;101710.53;;;12.76;43.90
57600;BME280;43426;43.594;24.334;2024-03-22T09:19:21;101707.19;;;13.33;44.26
57600;BME280;43426;43.594;24.334;2024-03-22T09:21:46;101683.53;;;13.52;42.78
57600;BME280;43426;43.594;24.334;2024-03-22T09:24:12;101715.44;;;13.74;41.97
57600;BME280;43426;43.594;24.334;2024-03-22T09:26:37;101696.44;;;13.66;45.30
57600;BME280;43426;43.594;24.334;2024-03-22T09:29:03;101717.97;;;13.76;43.52
57600;BME280;43426;43.594;24.334;2024-03-22T09:31:29;101689.47;;;13.63;43.90
57600;BME280;43426;43.594;24.334;2024-03-22T09:33:56;101699.00;;;13.92;41.61
57600;BME280;43426;43.594;24.334;2024-03-22T09:36:21;101700.50;;;14.03;40.68
57600;BME280;43426;43.594;24.334;2024-03-22T09:38:47;101712.97;;;14.62;41.23
57600;BME280;43426;43.594;24.334;2024-03-22T09:41:14;101678.94;;;14.91;40.64
57600;BME280;43426;43.594;24.334;2024-03-22T09:43:39;101693.00;;;15.34;42.20
57600;BME280;43426;43.594;24.334;2024-03-22T09:46:06;101701.41;;;15.47;38.53
57600;BME280;43426;43.594;24.334;2024-03-22T09:48:33;101690.28;;;15.34;39.76
57600;BME280;43426;43.594;24.334;2024-03-22T09:50:58;101678.69;;;15.40;39.30
57600;BME280;43426;43.594;24.334;2024-03-22T09:53:27;101689.97;;;16.22;39.96
57600;BME280;43426;43.594;24.334;2024-03-22T09:55:54;101656.63;;;16.34;38.19
57600;BME280;43426;43.594;24.334;2024-03-22T09:58:23;101687.44;;;16.35;39.70
57600;BME280;43426;43.594;24.334;2024-03-22T10:00:48;101693.31;;;16.09;37.73
57600;BME280;43426;43.594;24.334;2024-03-22T10:03:14;101666.91;;;15.48;41.21
57600;BME280;43426;43.594;24.334;2024-03-22T10:05:40;101669.72;;;15.78;39.63
57600;BME280;43426;43.594;24.334;2024-03-22T10:08:06;101676.25;;;16.15;40.35
57600;BME280;43426;43.594;24.334;2024-03-22T10:10:32;101670.75;;;16.38;38.61
57600;BME280;43426;43.594;24.334;2024-03-22T10:13:00;101658.13;;;16.22;37.17
57600;BME280;43426;43.594;24.334;2024-03-22T10:15:26;101633.53;;;15.54;41.97
57600;BME280;43426;43.594;24.334;2024-03-22T10:17:51;101662.44;;;15.55;40.96
57600;BME280;43426;43.594;24.334;2024-03-22T10:20:17;101647.84;;;15.25;39.19
57600;BME280;43426;43.594;24.334;2024-03-22T10:22:43;101665.03;;;15.48;39.84
57600;BME280;43426;43.594;24.334;2024-03-22T10:25:09;101645.81;;;16.11;40.20
57600;BME280;43426;43.594;24.334;2024-03-22T10:27:38;101650.72;;;16.46;38.49
57600;BME280;43426;43.594;24.334;2024-03-22T10:30:08;101663.00;;;16.27;38.11
57600;BME280;43426;43.594;24.334;2024-03-22T10:32:35;101659.38;;;16.34;40.01
57600;BME280;43426;43.594;24.334;2024-03-22T10:35:03;101652.81;;;16.59;38.06
57600;BME280;43426;43.594;24.334;2024-03-22T10:37:35;101638.22;;;16.51;37.90
57600;BME280;43426;43.594;24.334;2024-03-22T10:40:03;101624.25;;;16.25;40.73
57600;BME280;43426;43.594;24.334;2024-03-22T10:42:38;101641.56;;;15.94;40.89
57600;BME280;43426;43.594;24.334;2024-03-22T10:45:09;101625.63;;;15.68;39.46
57600;BME280;43426;43.594;24.334;2024-03-22T10:47:35;101647.00;;;15.71;39.43
57600;BME280;43426;43.594;24.334;2024-03-22T10:50:10;101620.91;;;15.85;39.29
57600;BME280;43426;43.594;24.334;2024-03-22T10:52:41;101628.53;;;16.64;38.86
57600;BME280;43426;43.594;24.334;2024-03-22T10:55:14;101618.81;;;17.06;36.84
57600;BME280;43426;43.594;24.334;2024-03-22T10:57:42;101588.81;;;17.28;35.28
57600;BME280;43426;43.594;24.334;2024-03-22T11:00:09;101604.59;;;17.54;36.68
57600;BME280;43426;43.594;24.334;2024-03-22T11:02:36;101603.06;;;17.23;36.63
57600;BME280;43426;43.594;24.334;2024-03-22T11:05:03;101597.13;;;17.63;35.69
57600;BME280;43426;43.594;24.334;2024-03-22T11:07:32;101609.84;;;17.77;34.21
57600;BME280;43426;43.594;24.334;2024-03-22T11:09:58;101602.22;;;17.23;34.71
57600;BME280;43426;43.594;24.334;2024-03-22T11:12:26;101586.69;;;16.87;35.54
57600;BME280;43426;43.594;24.334;2024-03-22T11:14:53;101587.34;;;17.25;37.63
57600;BME280;43426;43.594;24.334;2024-03-22T11:17:19;101579.25;;;17.88;36.21
57600;BME280;43426;43.594;24.334;2024-03-22T11:19:48;101585.56;;;18.59;35.08
57600;BME280;43426;43.594;24.334;2024-03-22T11:22:13;101596.63;;;18.86;35.01
57600;BME280;43426;43.594;24.334;2024-03-22T11:24:39;101568.59;;;18.29;35.50
57600;BME280;43426;43.594;24.334;2024-03-22T11:27:05;101588.28;;;18.46;33.54
57600;BME280;43426;43.594;24.334;2024-03-22T11:29:30;101562.47;;;17.35;35.24
57600;BME280;43426;43.594;24.334;2024-03-22T11:31:56;101571.16;;;17.24;36.13
57600;BME280;43426;43.594;24.334;2024-03-22T11:34:21;101570.56;;;18.00;37.34
57600;BME280;43426;43.594;24.334;2024-03-22T11:36:47;101545.41;;;18.53;33.34
57600;BME280;43426;43.594;24.334;2024-03-22T11:39:15;101538.94;;;18.74;33.64
57600;BME280;43426;43.594;24.334;2024-03-22T11:41:40;101557.00;;;18.62;32.96
57600;BME280;43426;43.594;24.334;2024-03-22T11:44:06;101531.97;;;18.65;33.97
57600;BME280;43426;43.594;24.334;2024-03-22T11:46:32;101530.63;;;18.41;34.29
57600;BME280;43426;43.594;24.334;2024-03-22T11:48:58;101530.63;;;18.41;34.86
57600;BME280;43426;43.594;24.334;2024-03-22T11:51:24;101528.00;;;18.19;35.60
57600;BME280;43426;43.594;24.334;2024-03-22T11:53:52;101540.88;;;18.25;34.33
57600;BME280;43426;43.594;24.334;2024-03-22T11:56:21;101517.00;;;17.42;34.86
57600;BME280;43426;43.594;24.334;2024-03-22T11:58:47;101534.09;;;16.05;37.63
57600;BME280;43426;43.594;24.334;2024-03-22T12:01:16;101513.97;;;15.61;37.51
57600;BME280;43426;43.594;24.334;2024-03-22T12:03:46;101526.50;;;16.15;39.44
57600;BME280;43426;43.594;24.334;2024-03-22T12:06:12;101526.81;;;16.57;37.23
57600;BME280;43426;43.594;24.334;2024-03-22T12:08:38;101518.81;;;16.55;37.63
57600;BME280;43426;43.594;24.334;2024-03-22T12:11:07;101525.66;;;16.14;38.43
57600;BME280;43426;43.594;24.334;2024-03-22T12:13:33;101518.13;;;16.16;37.93
57600;BME280;43426;43.594;24.334;2024-03-22T12:15:59;101514.22;;;16.56;38.46
57600;BME280;43426;43.594;24.334;2024-03-22T12:18:24;101490.13;;;16.74;38.65
57600;BME280;43426;43.594;24.334;2024-03-22T12:20:50;101511.75;;;16.97;37.92
57600;BME280;43426;43.594;24.334;2024-03-22T12:23:15;101504.31;;;17.06;37.68
57600;BME280;43426;43.594;24.334;2024-03-22T12:25:40;101502.66;;;17.62;36.99
57600;BME280;43426;43.594;24.334;2024-03-22T12:28:06;101474.88;;;17.51;34.97
57600;BME280;43426;43.594;24.334;2024-03-22T12:30:31;101501.34;;;17.58;37.21
57600;BME280;43426;43.594;24.334;2024-03-22T12:32:58;101484.91;;;18.14;35.10
57600;BME280;43426;43.594;24.334;2024-03-22T12:35:23;101492.00;;;18.50;34.68
57600;BME280;43426;43.594;24.334;2024-03-22T12:37:49;101476.50;;;18.71;34.84
57600;BME280;43426;43.594;24.334;2024-03-22T12:40:15;101488.84;;;18.53;33.91